地図

経路データ

SID SEASON NUMBER BASIN SUBBASIN NAME ISO_TIME NATURE LAT LON WMO_WIND WMO_PRES WMO_AGENCY TRACK_TYPE DIST2LAND LANDFALL IFLAG USA_AGENCY USA_ATCF_ID USA_LAT USA_LON USA_RECORD USA_STATUS USA_WIND USA_PRES USA_SSHS USA_R34_NE USA_R34_SE USA_R34_SW USA_R34_NW USA_R50_NE USA_R50_SE USA_R50_SW USA_R50_NW USA_R64_NE USA_R64_SE USA_R64_SW USA_R64_NW USA_POCI USA_ROCI USA_RMW USA_EYE TOKYO_LAT TOKYO_LON TOKYO_GRADE TOKYO_WIND TOKYO_PRES TOKYO_R50_DIR TOKYO_R50_LONG TOKYO_R50_SHORT TOKYO_R30_DIR TOKYO_R30_LONG TOKYO_R30_SHORT TOKYO_LAND CMA_LAT CMA_LON CMA_CAT CMA_WIND CMA_PRES HKO_LAT HKO_LON HKO_CAT HKO_WIND HKO_PRES NEWDELHI_LAT NEWDELHI_LON NEWDELHI_GRADE NEWDELHI_WIND NEWDELHI_PRES NEWDELHI_CI NEWDELHI_DP NEWDELHI_POCI REUNION_LAT REUNION_LON REUNION_TYPE REUNION_WIND REUNION_PRES REUNION_TNUM REUNION_CI REUNION_RMW REUNION_R34_NE REUNION_R34_SE REUNION_R34_SW REUNION_R34_NW REUNION_R50_NE REUNION_R50_SE REUNION_R50_SW REUNION_R50_NW REUNION_R64_NE REUNION_R64_SE REUNION_R64_SW REUNION_R64_NW BOM_LAT BOM_LON BOM_TYPE BOM_WIND BOM_PRES BOM_TNUM BOM_CI BOM_RMW BOM_R34_NE BOM_R34_SE BOM_R34_SW BOM_R34_NW BOM_R50_NE BOM_R50_SE BOM_R50_SW BOM_R50_NW BOM_R64_NE BOM_R64_SE BOM_R64_SW BOM_R64_NW BOM_ROCI BOM_POCI BOM_EYE BOM_POS_METHOD BOM_PRES_METHOD NADI_LAT NADI_LON NADI_CAT NADI_WIND NADI_PRES WELLINGTON_LAT WELLINGTON_LON WELLINGTON_WIND WELLINGTON_PRES DS824_LAT DS824_LON DS824_STAGE DS824_WIND DS824_PRES TD9636_LAT TD9636_LON TD9636_STAGE TD9636_WIND TD9636_PRES TD9635_LAT TD9635_LON TD9635_WIND TD9635_PRES TD9635_ROCI NEUMANN_LAT NEUMANN_LON NEUMANN_CLASS NEUMANN_WIND NEUMANN_PRES MLC_LAT MLC_LON MLC_CLASS MLC_WIND MLC_PRES USA_GUST BOM_GUST BOM_GUST_PER REUNION_GUST REUNION_GUST_PER USA_SEAHGT USA_SEARAD_NE USA_SEARAD_SE USA_SEARAD_SW USA_SEARAD_NW STORM_SPEED STORM_DIR
1996043S07053 1996 11 SI MM DOLORESSE 1996-02-11 18:00:00 TS -7.30000 53.0000 main 673 660 O___________O_ jtwc_sh SH141996 -7.30000 53.0000 20 -1 -7.30000 53.0000 TC 20 4 283
1996043S07053 1996 11 SI MM DOLORESSE 1996-02-11 21:00:00 TS -7.25003 52.7900 main 660 657 P___________P_ SH141996 -7.25003 52.7900 20 -1 -7.25003 52.7900 TC 20 4 284
1996043S07053 1996 11 SI MM DOLORESSE 1996-02-12 00:00:00 TS -7.20000 52.6000 main 657 651 O___________O_ jtwc_sh SH141996 -7.20000 52.6000 20 -1 -7.20000 52.6000 TC 20 4 286
1996043S07053 1996 11 SI MM DOLORESSE 1996-02-12 03:00:00 TS -7.14999 52.4425 main 655 649 P___________P_ SH141996 -7.14999 52.4425 20 -1 -7.14999 52.4425 TC 20 3 289
1996043S07053 1996 11 SI MM DOLORESSE 1996-02-12 06:00:00 TS -7.10000 52.3000 main 649 644 O___________O_ jtwc_sh SH141996 -7.10000 52.3000 20 -1 -7.10000 52.3000 TC 20 3 290
1996043S07053 1996 11 SI MM DOLORESSE 1996-02-12 09:00:00 TS -7.04249 52.1500 main 653 648 P___________P_ SH141996 -7.04249 52.1500 20 -1 -7.04249 52.1500 TC 20 2 303
1996043S07053 1996 11 SI MM DOLORESSE 1996-02-12 12:00:00 TS -6.96667 52.0889 20 1005 reunion main 648 643 O____O______O_ jtwc_sh SH141996 -7.00000 52.0000 20 -1 -6.70000 52.8000 2 20 1005 1.50000 1.50000 -7.00000 52.0000 TC 20 2 300
1996043S07053 1996 11 SI MM DOLORESSE 1996-02-12 15:00:00 TS -6.95500 51.9945 main 643 638 P____P______P_ SH141996 -6.99249 51.8575 22 -1 -6.80503 52.5425 2 20 1005 -6.99249 51.8575 TC 22 2 268
1996043S07053 1996 11 SI MM DOLORESSE 1996-02-12 18:00:00 TS -6.97273 51.8636 20 1005 reunion main 638 629 O____O______O_ jtwc_sh SH141996 -7.00000 51.7000 25 -1 -6.90000 52.3000 2 20 1005 1.50000 1.50000 -7.00000 51.7000 TC 25 3 263
1996043S07053 1996 11 SI MM DOLORESSE 1996-02-12 21:00:00 TS -6.99000 51.6950 main 629 620 P____P______P_ SH141996 -6.99251 51.5000 25 -1 -6.98499 52.0850 2 20 1005 -6.99251 51.5000 TC 25 4 260
1996043S07053 1996 11 SI MM DOLORESSE 1996-02-13 00:00:00 TS -7.03333 51.5000 20 1005 reunion main 620 605 O____O______O_ jtwc_sh SH141996 -7.00000 51.3000 25 -1 -7.10000 51.9000 2 20 1005 1.50000 1.50000 -7.00000 51.3000 TC 25 4 252
1996043S07053 1996 11 SI MM DOLORESSE 1996-02-13 03:00:00 TS -7.10582 51.3450 main 601 587 P____P______P_ SH141996 -7.02749 51.1425 25 -1 -7.26248 51.7500 2 22 1004 -7.02749 51.1425 TC 25 4 236
1996043S07053 1996 11 SI MM DOLORESSE 1996-02-13 06:00:00 TS -7.23333 51.2000 25 1003 reunion main 587 562 O____O______O_ jtwc_sh SH141996 -7.10000 51.0000 25 -1 -7.50000 51.6000 2 25 1003 2.00000 2.00000 -7.10000 51.0000 TC 25 4 221
1996043S07053 1996 11 SI MM DOLORESSE 1996-02-13 09:00:00 TS -7.42494 51.0683 main 562 523 P____P______P_ SH141996 -7.21997 50.8725 25 -1 -7.83488 51.4599 2 25 1002 -7.21997 50.8725 TC 25 5 217
1996043S07053 1996 11 SI MM DOLORESSE 1996-02-13 12:00:00 TS -7.66667 50.8667 25 1002 reunion main 523 488 O____O______O_ jtwc_sh SH141996 -7.40000 50.7000 25 -1 -8.20000 51.2000 2 25 1002 2.00000 2.00000 -7.40000 50.7000 TC 25 7 227
1996043S07053 1996 11 SI MM DOLORESSE 1996-02-13 15:00:00 TS -7.93086 50.5234 main 488 445 P____P______P_ SH141996 -7.63498 50.4375 25 -1 -8.52262 50.6951 2 25 1001 -7.63498 50.4375 TC 25 9 235
1996043S07053 1996 11 SI MM DOLORESSE 1996-02-13 18:00:00 TS -8.20000 50.1000 25 1000 reunion main 445 416 O____O______O_ jtwc_sh SH141996 -7.90000 50.1000 25 -1 -8.80000 50.1000 2 25 1000 2.00000 2.00000 -7.90000 50.1000 TC 25 10 239
1996043S07053 1996 11 SI MM DOLORESSE 1996-02-13 21:00:00 TS -8.44329 49.6766 main 416 380 P____P______P_ SH141996 -8.14998 49.7225 27 -1 -9.02993 49.5849 2 27 999 -8.14998 49.7225 TC 27 10 241
1996043S07053 1996 11 SI MM DOLORESSE 1996-02-14 00:00:00 TS -8.66667 49.2333 30 998 reunion main 380 359 O____O______O_ jtwc_sh SH141996 -8.40000 49.3000 30 -1 -9.20000 49.1000 2 30 998 2.50000 2.50000 -8.40000 49.3000 TC 30 10 243
1996043S07053 1996 11 SI MM DOLORESSE 1996-02-14 03:00:00 TS -8.88656 48.8008 main 361 347 P____P______P_ SH141996 -8.67241 48.8725 30 -1 -9.31485 48.6574 2 30 998 -8.67241 48.8725 TC 30 10 246
1996043S07053 1996 11 SI MM DOLORESSE 1996-02-14 06:00:00 TS -9.06667 48.3333 30 998 reunion main 350 350 O____O______O_ jtwc_sh SH141996 -8.90000 48.4000 30 -1 -9.40000 48.2000 2 30 998 2.50000 2.50000 -8.90000 48.4000 TC 30 10 253
1996043S07053 1996 11 SI MM DOLORESSE 1996-02-14 09:00:00 TS -9.18665 47.7983 main 359 359 P____P______P_ SH141996 -9.02994 47.8724 30 -1 -9.50005 47.6500 2 30 998 -9.02994 47.8724 TC 30 11 260
1996043S07053 1996 11 SI MM DOLORESSE 1996-02-14 12:00:00 TS -9.26667 47.2333 30 998 reunion main 382 382 O____O______O_ jtwc_sh SH141996 -9.10000 47.3000 30 -1 -9.60000 47.1000 2 30 998 2.00000 2.50000 -9.10000 47.3000 TC 30 11 262
1996043S07053 1996 11 SI MM DOLORESSE 1996-02-14 15:00:00 TS -9.33330 46.6733 main 416 416 P____P______P_ SH141996 -9.15001 46.6924 30 -1 -9.69988 46.6350 2 30 998 -9.15001 46.6924 TC 30 11 263
1996043S07053 1996 11 SI MM DOLORESSE 1996-02-14 18:00:00 TS -9.40000 46.1333 30 998 reunion main 453 453 O____O______O_ jtwc_sh SH141996 -9.20000 46.1000 30 -1 -9.80000 46.2000 2 30 998 2.00000 2.50000 -9.20000 46.1000 TC 30 10 261
1996043S07053 1996 11 SI MM DOLORESSE 1996-02-14 21:00:00 TS -9.48994 45.6275 main 484 484 P____P______P_ SH141996 -9.27742 45.5700 32 -1 -9.91497 45.7425 2 29 998 -9.27742 45.5700 TC 32 10 258
1996043S07053 1996 11 SI MM DOLORESSE 1996-02-15 00:00:00 TS -9.60000 45.1667 28 999 reunion main 509 473 O____O______O_ jtwc_sh SH141996 -9.40000 45.1000 35 0 -10.0000 45.3000 2 28 999 2.00000 2.50000 -9.40000 45.1000 TC 35 9 254
1996043S07053 1996 11 SI MM DOLORESSE 1996-02-15 03:00:00 TS -9.73831 44.7292 main 462 425 P____P______P_ SH141996 -9.59998 44.6551 35 0 -10.0150 44.8774 2 29 998 -9.59998 44.6551 TC 35 8 251
1996043S07053 1996 11 SI MM DOLORESSE 1996-02-15 06:00:00 TS -9.86667 44.3667 30 997 reunion main 425 393 O____O______O_ jtwc_sh SH141996 -9.80000 44.3000 35 0 -10.0000 44.5000 2 30 997 2.50000 2.50000 -9.80000 44.3000 TC 35 7 251
1996043S07053 1996 11 SI MM DOLORESSE 1996-02-15 09:00:00 TS -9.94827 44.1008 main 393 369 P____P______P_ SH141996 -9.92242 44.0699 37 0 -9.99998 44.1625 2 30 997 -9.92242 44.0699 TC 37 5 254
1996043S07053 1996 11 SI MM DOLORESSE 1996-02-15 12:00:00 TS -10.0000 43.9000 30 997 reunion main 369 348 O____O______O_ jtwc_sh SH141996 -10.0000 43.9000 40 0 -10.0000 43.9000 2 30 997 2.50000 2.50000 -10.0000 43.9000 TC 40 4 256
1996043S07053 1996 11 SI MM DOLORESSE 1996-02-15 15:00:00 TS -10.0433 43.7142 main 348 324 P____P______P_ SH141996 -10.0650 43.7000 42 0 -9.99993 43.7425 2 30 996 -10.0650 43.7000 TC 42 4 260
1996043S07053 1996 11 SI MM DOLORESSE 1996-02-15 18:00:00 TS -10.0667 43.5333 30 995 reunion main 324 303 O____O______O_ jtwc_sh SH141996 -10.1000 43.5000 45 0 -10.0000 43.6000 2 30 995 2.50000 2.50000 -10.1000 43.5000 TC 45 4 266
1996043S07053 1996 11 SI MM DOLORESSE 1996-02-15 21:00:00 TS -10.0692 43.3242 main 303 281 P____P______P_ SH141996 -10.1075 43.3000 45 0 -9.99249 43.3725 2 30 995 -10.1075 43.3000 TC 45 4 270
1996043S07053 1996 11 SI MM DOLORESSE 1996-02-16 00:00:00 TS -10.0667 43.1000 30 995 reunion main 281 260 O____O______O_ jtwc_sh SH141996 -10.1000 43.1000 45 0 -10.0000 43.1000 2 30 995 2.50000 2.50000 -10.1000 43.1000 TC 45 5 269
1996043S07053 1996 11 SI MM DOLORESSE 1996-02-16 03:00:00 TS -10.0759 42.8517 main 260 228 P____P______P_ SH141996 -10.0925 42.8925 47 0 -10.0426 42.7700 2 32 993 -10.0925 42.8925 TC 47 5 266
1996043S07053 1996 11 SI MM DOLORESSE 1996-02-16 06:00:00 TS -10.1000 42.6333 35 992 reunion main 228 218 O____O______O_ jtwc_sh SH141996 -10.1000 42.7000 50 0 -10.1000 42.5000 3 35 992 3.00000 3.00000 -10.1000 42.7000 TC 50 4 260
1996043S07053 1996 11 SI MM DOLORESSE 1996-02-16 09:00:00 TS -10.1425 42.4842 main 218 204 P____P______P_ SH141996 -10.1350 42.5275 52 0 -10.1575 42.3975 3 37 990 -10.1350 42.5275 TC 52 3 246
1996043S07053 1996 11 SI MM DOLORESSE 1996-02-16 12:00:00 TS -10.2000 42.4000 40 988 reunion main 204 201 O____O______O_ jtwc_sh SH141996 -10.2000 42.4000 55 0 -10.2000 42.4000 3 40 988 3.00000 3.00000 -10.2000 42.4000 TC 55 2 224
1996043S07053 1996 11 SI MM DOLORESSE 1996-02-16 15:00:00 TS -10.2667 42.3633 main 201 201 P____P______P_ SH141996 -10.3000 42.3275 60 0 -10.2000 42.4350 3 42 986 -10.3000 42.3275 TC 60 1 193
1996043S07053 1996 11 SI MM DOLORESSE 1996-02-16 18:00:00 TS -10.3333 42.3667 45 985 reunion main 201 199 O____O______O_ jtwc_sh SH141996 -10.4000 42.3000 65 1 -10.2000 42.5000 3 45 985 3.50000 3.50000 -10.4000 42.3000 TC 65 1 176
1996043S07053 1996 11 SI MM DOLORESSE 1996-02-16 21:00:00 TS -10.3783 42.3808 main 199 199 P____P______P_ SH141996 -10.4500 42.2850 67 1 -10.2350 42.5725 3 45 985 -10.4500 42.2850 TC 67 1 163
1996043S07053 1996 11 SI MM DOLORESSE 1996-02-17 00:00:00 TS -10.4333 42.4000 45 985 reunion main 199 198 O____O______O_ jtwc_sh SH141996 -10.5000 42.3000 70 1 -10.3000 42.6000 3 45 985 3.50000 3.50000 -10.5000 42.3000 TC 70 1 0
1996043S07053 1996 11 SI MM DOLORESSE 1996-02-17 03:00:00 TS -10.5058 42.3950 main 198 197 P____P______P_ SH141996 -10.5775 42.3425 72 1 -10.3625 42.5000 3 45 985 -10.5775 42.3425 TC 72 2 172
1996043S07053 1996 11 SI MM DOLORESSE 1996-02-17 06:00:00 TS -10.6333 42.4000 45 985 reunion main 197 196 O____O______O_ jtwc_sh SH141996 -10.7000 42.4000 75 1 -10.5000 42.4000 3 45 985 3.00000 3.50000 -10.7000 42.4000 TC 75 3 173
1996043S07053 1996 11 SI MM DOLORESSE 1996-02-17 09:00:00 TS -10.8417 42.4350 main 197 196 P____P______P_ SH141996 -10.8775 42.4425 75 1 -10.7700 42.4200 3 45 985 -10.8775 42.4425 TC 75 5 168
1996043S07053 1996 11 SI MM DOLORESSE 1996-02-17 12:00:00 TS -11.1000 42.5000 45 985 reunion main 207 207 O____O______O_ jtwc_sh SH141996 -11.1000 42.5000 75 1 -11.1000 42.5000 3 45 985 3.50000 3.50000 -11.1000 42.5000 TC 75 5 163
1996043S07053 1996 11 SI MM DOLORESSE 1996-02-17 15:00:00 TS -11.3467 42.5900 main 220 220 P____P______P_ SH141996 -11.3200 42.5850 75 1 -11.4000 42.6000 3 45 982 -11.3200 42.5850 TC 75 6 160
1996043S07053 1996 11 SI MM DOLORESSE 1996-02-17 18:00:00 TS -11.6333 42.7000 45 980 reunion main 233 229 O____O______O_ jtwc_sh SH141996 -11.6000 42.7000 75 1 -11.7000 42.7000 3 45 980 3.50000 3.50000 -11.6000 42.7000 TC 75 7 160
1996043S07053 1996 11 SI MM DOLORESSE 1996-02-17 21:00:00 TS -11.9800 42.8266 main 239 239 P____P______P_ SH141996 -11.9700 42.8425 75 1 -12.0000 42.7949 3 48 978 -11.9700 42.8425 TC 75 8 162
1996043S07053 1996 11 SI MM DOLORESSE 1996-02-18 00:00:00 TS -12.3727 42.9455 52 977 reunion main 250 250 O____O______O_ jtwc_sh SH141996 -12.4000 43.0000 75 1 -12.3000 42.8000 3 52 977 4.00000 4.00000 -12.4000 43.0000 TC 75 8 166
1996043S07053 1996 11 SI MM DOLORESSE 1996-02-18 03:00:00 TS -12.7910 43.0401 main 260 260 P____P______P_ SH141996 -12.8350 43.1426 75 1 -12.6001 42.6477 3 52 977 -12.8350 43.1426 TC 75 9 164
1996043S07053 1996 11 SI MM DOLORESSE 1996-02-18 06:00:00 TS -13.2556 43.2000 52 977 reunion main 281 281 O____O______O_ jtwc_sh SH141996 -13.3000 43.3000 75 1 -12.9000 42.4000 3 52 977 3.50000 4.00000 -13.3000 43.3000 TC 75 11 157
1996043S07053 1996 11 SI MM DOLORESSE 1996-02-18 09:00:00 TS -13.8075 43.4776 main 296 236 P___________P_ SH141996 -13.8075 43.4776 75 1 3 -13.8075 43.4776 TC 75 12 155
1996043S07053 1996 11 SI MM DOLORESSE 1996-02-18 12:00:00 TS -14.3000 43.7000 50 980 reunion main 236 184 O___________O_ jtwc_sh SH141996 -14.3000 43.7000 75 1 -14.3000 43.7000 TC 75 10 152
1996043S07053 1996 11 SI MM DOLORESSE 1996-02-18 15:00:00 TS -14.7075 43.9777 main 184 132 P___________P_ SH141996 -14.7075 43.9777 67 1 -14.7075 43.9777 TC 67 10 144
1996043S07053 1996 11 SI MM DOLORESSE 1996-02-18 18:00:00 TS -15.1000 44.3000 45 985 reunion main 132 70 O___________O_ jtwc_sh SH141996 -15.1000 44.3000 60 0 -15.1000 44.3000 TC 60 11 141
1996043S07053 1996 11 SI MM DOLORESSE 1996-02-18 21:00:00 TS -15.5351 44.6724 main 70 10 P___________P_ SH141996 -15.5351 44.6724 52 0 -15.5351 44.6724 TC 52 11 143
1996043S07053 1996 11 SI MM DOLORESSE 1996-02-19 00:00:00 TS -16.0000 45.0000 40 990 reunion main 10 0 O___________O_ jtwc_sh SH141996 -16.0000 45.0000 45 0 -16.0000 45.0000 TC 45 11 153
1996043S07053 1996 11 SI MM DOLORESSE 1996-02-19 03:00:00 TS -16.4924 45.1877 main 0 0 P___________P_ SH141996 -16.4924 45.1877 40 0 -16.4924 45.1877 TC 40 10 164
1996043S07053 1996 11 SI MM DOLORESSE 1996-02-19 06:00:00 TS -17.0000 45.3000 30 995 reunion main 0 0 O___________O_ jtwc_sh SH141996 -17.0000 45.3000 35 0 -17.0000 45.3000 TC 35 10 169
1996043S07053 1996 11 SI MM DOLORESSE 1996-02-19 09:00:00 TS -17.5025 45.3998 main 0 0 P___________P_ SH141996 -17.5025 45.3998 32 -1 -17.5025 45.3998 TC 32 10 169
1996043S07053 1996 11 SI MM DOLORESSE 1996-02-19 12:00:00 TS -18.0000 45.5000 30 997 reunion main 0 O___________O_ jtwc_sh SH141996 -18.0000 45.5000 30 -1 -18.0000 45.5000 TC 30 10 169

IBTrACS Databaseについて

本データベースは、米国NOAAが公開する1842年以降の世界の熱帯低気圧のベストトラックデータアーカイブInternational Best Track Archive for Climate Stewardship (IBTrACS)を、ウェブで閲覧しやすい形式に変換したものです。

最終更新日:2021-12-08